Dimock, South Dakota
Current Conditions -  °F | °C
As of 2:26 PM on Sunday 25 Jan 2015 (Local Time) from KMHE Reporting Station
Overcast Overcast  
Wind Chill: 29°   Ceiling: 1300
Heat Index: 36°   Visibility: 10mi
Dew Point: 32°   Wind: 9mph
Humidity: 86%   Direction: 320°NW
Pressure: 30.05"   Gusts: NA
Location:  43.47°N, 97.99°W
Report Text: KMHE 252026Z AUTO 32008KT 10SM BKN013 OVC060 02/00 A3005 RMK AO2 T00220000
Loading
Personal Weather Stations






























Interactive Weather Map New forecast layout! Learn more

10-Day Weather Forecast

Advertisements
Track Severe Weather on mobile